sensor_id;sensor_type;location;lat;lon;timestamp;pressure;altitude;pressure_sealevel;temperature;humidity
24762;BME280;12865;51.934;10.330;2023-02-11T00:01:30;100616.44;;;4.20;100.00
24762;BME280;12865;51.934;10.330;2023-02-11T00:04:16;100594.25;;;4.04;100.00
24762;BME280;12865;51.934;10.330;2023-02-11T00:07:01;100579.22;;;4.06;100.00
24762;BME280;12865;51.934;10.330;2023-02-11T00:09:47;100582.44;;;4.12;100.00
24762;BME280;12865;51.934;10.330;2023-02-11T00:12:34;100582.50;;;4.11;100.00
24762;BME280;12865;51.934;10.330;2023-02-11T00:15:20;100566.66;;;4.11;100.00
24762;BME280;12865;51.934;10.330;2023-02-11T00:18:06;100572.94;;;4.08;100.00
24762;BME280;12865;51.934;10.330;2023-02-11T00:20:51;100561.66;;;4.05;100.00
24762;BME280;12865;51.934;10.330;2023-02-11T00:23:37;100570.88;;;4.15;100.00
24762;BME280;12865;51.934;10.330;2023-02-11T00:26:27;100580.72;;;4.11;100.00
24762;BME280;12865;51.934;10.330;2023-02-11T00:29:13;100591.06;;;4.16;100.00
24762;BME280;12865;51.934;10.330;2023-02-11T00:31:59;100596.28;;;4.17;100.00
24762;BME280;12865;51.934;10.330;2023-02-11T00:34:51;100584.22;;;4.32;100.00
24762;BME280;12865;51.934;10.330;2023-02-11T00:37:37;100576.41;;;4.29;100.00
24762;BME280;12865;51.934;10.330;2023-02-11T00:40:23;100564.94;;;4.30;100.00
24762;BME280;12865;51.934;10.330;2023-02-11T00:43:08;100551.75;;;4.30;100.00
24762;BME280;12865;51.934;10.330;2023-02-11T00:45:54;100548.56;;;4.22;100.00
24762;BME280;12865;51.934;10.330;2023-02-11T00:48:40;100529.34;;;4.20;100.00
24762;BME280;12865;51.934;10.330;2023-02-11T00:51:27;100537.84;;;4.26;100.00
24762;BME280;12865;51.934;10.330;2023-02-11T00:54:13;100545.81;;;4.25;100.00
24762;BME280;12865;51.934;10.330;2023-02-11T00:56:58;100550.25;;;4.24;100.00
24762;BME280;12865;51.934;10.330;2023-02-11T00:59:44;100556.22;;;4.28;100.00
24762;BME280;12865;51.934;10.330;2023-02-11T01:02:30;100560.53;;;4.30;100.00
24762;BME280;12865;51.934;10.330;2023-02-11T01:05:15;100549.63;;;4.38;100.00
24762;BME280;12865;51.934;10.330;2023-02-11T01:08:01;100567.13;;;4.41;100.00
24762;BME280;12865;51.934;10.330;2023-02-11T01:10:58;100571.53;;;4.40;100.00
24762;BME280;12865;51.934;10.330;2023-02-11T01:13:45;100564.28;;;4.45;100.00
24762;BME280;12865;51.934;10.330;2023-02-11T01:16:31;100547.25;;;4.32;100.00
24762;BME280;12865;51.934;10.330;2023-02-11T01:19:16;100545.59;;;4.29;100.00
24762;BME280;12865;51.934;10.330;2023-02-11T01:22:02;100547.91;;;4.37;100.00
24762;BME280;12865;51.934;10.330;2023-02-11T01:24:48;100566.25;;;4.40;100.00
24762;BME280;12865;51.934;10.330;2023-02-11T01:27:34;100573.13;;;4.44;100.00
24762;BME280;12865;51.934;10.330;2023-02-11T01:30:20;100577.41;;;4.47;100.00
24762;BME280;12865;51.934;10.330;2023-02-11T01:33:06;100580.91;;;4.47;100.00
24762;BME280;12865;51.934;10.330;2023-02-11T01:35:52;100577.06;;;4.54;100.00
24762;BME280;12865;51.934;10.330;2023-02-11T01:38:38;100578.56;;;4.60;100.00
24762;BME280;12865;51.934;10.330;2023-02-11T01:41:25;100560.88;;;4.62;100.00
24762;BME280;12865;51.934;10.330;2023-02-11T01:44:25;100570.44;;;4.64;100.00
24762;BME280;12865;51.934;10.330;2023-02-11T01:47:11;100584.78;;;4.59;100.00
24762;BME280;12865;51.934;10.330;2023-02-11T01:50:00;100585.34;;;4.65;100.00
24762;BME280;12865;51.934;10.330;2023-02-11T01:52:46;100576.97;;;4.76;100.00
24762;BME280;12865;51.934;10.330;2023-02-11T01:55:32;100568.81;;;4.81;100.00
24762;BME280;12865;51.934;10.330;2023-02-11T01:58:38;100565.44;;;4.77;100.00
24762;BME280;12865;51.934;10.330;2023-02-11T02:01:27;100559.59;;;4.70;100.00
24762;BME280;12865;51.934;10.330;2023-02-11T02:04:16;100531.03;;;4.60;100.00
24762;BME280;12865;51.934;10.330;2023-02-11T02:07:10;100534.09;;;4.51;100.00
24762;BME280;12865;51.934;10.330;2023-02-11T02:10:06;100530.97;;;4.61;100.00
24762;BME280;12865;51.934;10.330;2023-02-11T02:12:54;100515.59;;;4.51;100.00
24762;BME280;12865;51.934;10.330;2023-02-11T02:15:50;100519.72;;;4.56;100.00
24762;BME280;12865;51.934;10.330;2023-02-11T02:22:14;100505.78;;;4.54;100.00
24762;BME280;12865;51.934;10.330;2023-02-11T02:40:55;100496.63;;;4.61;100.00
24762;BME280;12865;51.934;10.330;2023-02-11T02:43:45;100487.78;;;4.62;100.00
24762;BME280;12865;51.934;10.330;2023-02-11T02:46:33;100499.19;;;4.63;100.00
24762;BME280;12865;51.934;10.330;2023-02-11T02:49:19;100500.84;;;4.65;100.00
24762;BME280;12865;51.934;10.330;2023-02-11T02:57:56;100506.13;;;4.65;100.00
24762;BME280;12865;51.934;10.330;2023-02-11T03:01:02;100498.69;;;4.73;100.00
24762;BME280;12865;51.934;10.330;2023-02-11T03:07:46;100488.34;;;4.69;100.00
24762;BME280;12865;51.934;10.330;2023-02-11T03:10:36;100485.72;;;4.69;100.00
24762;BME280;12865;51.934;10.330;2023-02-11T03:13:27;100486.97;;;4.79;100.00
24762;BME280;12865;51.934;10.330;2023-02-11T03:16:18;100488.50;;;4.66;100.00
24762;BME280;12865;51.934;10.330;2023-02-11T03:19:14;100482.56;;;4.61;100.00
24762;BME280;12865;51.934;10.330;2023-02-11T03:22:06;100468.22;;;4.66;100.00
24762;BME280;12865;51.934;10.330;2023-02-11T03:24:54;100480.91;;;4.58;100.00
24762;BME280;12865;51.934;10.330;2023-02-11T03:27:52;100472.00;;;4.61;100.00
24762;BME280;12865;51.934;10.330;2023-02-11T03:30:42;100472.06;;;4.59;100.00
24762;BME280;12865;51.934;10.330;2023-02-11T03:33:37;100471.56;;;4.70;100.00
24762;BME280;12865;51.934;10.330;2023-02-11T03:36:34;100476.63;;;4.56;100.00
24762;BME280;12865;51.934;10.330;2023-02-11T03:39:26;100477.47;;;4.56;100.00
24762;BME280;12865;51.934;10.330;2023-02-11T03:42:13;100468.09;;;4.69;100.00
24762;BME280;12865;51.934;10.330;2023-02-11T03:45:05;100477.56;;;4.55;100.00
24762;BME280;12865;51.934;10.330;2023-02-11T03:48:10;100482.19;;;4.50;100.00
24762;BME280;12865;51.934;10.330;2023-02-11T03:50:58;100492.06;;;4.46;100.00
24762;BME280;12865;51.934;10.330;2023-02-11T03:53:46;100488.63;;;4.44;100.00
24762;BME280;12865;51.934;10.330;2023-02-11T03:56:40;100491.31;;;4.43;100.00
24762;BME280;12865;51.934;10.330;2023-02-11T03:59:27;100483.22;;;4.47;100.00
24762;BME280;12865;51.934;10.330;2023-02-11T04:02:13;100478.63;;;4.51;100.00
24762;BME280;12865;51.934;10.330;2023-02-11T04:04:59;100472.66;;;4.47;100.00
24762;BME280;12865;51.934;10.330;2023-02-11T04:07:45;100483.84;;;4.52;100.00
24762;BME280;12865;51.934;10.330;2023-02-11T04:10:31;100496.97;;;4.54;100.00
24762;BME280;12865;51.934;10.330;2023-02-11T04:13:17;100494.19;;;4.57;100.00
24762;BME280;12865;51.934;10.330;2023-02-11T04:16:03;100491.78;;;4.52;100.00
24762;BME280;12865;51.934;10.330;2023-02-11T04:18:48;100489.19;;;4.51;100.00
24762;BME280;12865;51.934;10.330;2023-02-11T04:21:34;100495.84;;;4.59;100.00
24762;BME280;12865;51.934;10.330;2023-02-11T04:24:20;100490.84;;;4.53;100.00
24762;BME280;12865;51.934;10.330;2023-02-11T04:27:05;100489.25;;;4.49;100.00
24762;BME280;12865;51.934;10.330;2023-02-11T04:29:51;100499.63;;;4.54;100.00
24762;BME280;12865;51.934;10.330;2023-02-11T04:32:37;100501.47;;;4.52;100.00
24762;BME280;12865;51.934;10.330;2023-02-11T04:35:22;100490.91;;;4.52;100.00
24762;BME280;12865;51.934;10.330;2023-02-11T04:38:08;100478.84;;;4.46;100.00
24762;BME280;12865;51.934;10.330;2023-02-11T04:40:53;100480.91;;;4.40;100.00
24762;BME280;12865;51.934;10.330;2023-02-11T04:43:39;100479.78;;;4.45;100.00
24762;BME280;12865;51.934;10.330;2023-02-11T04:46:25;100487.06;;;4.40;100.00
24762;BME280;12865;51.934;10.330;2023-02-11T04:49:15;100485.34;;;4.39;100.00
24762;BME280;12865;51.934;10.330;2023-02-11T04:52:01;100483.56;;;4.40;100.00
24762;BME280;12865;51.934;10.330;2023-02-11T04:54:47;100480.06;;;4.39;100.00
24762;BME280;12865;51.934;10.330;2023-02-11T04:57:33;100482.47;;;4.44;100.00
24762;BME280;12865;51.934;10.330;2023-02-11T05:00:18;100485.41;;;4.38;100.00
24762;BME280;12865;51.934;10.330;2023-02-11T05:03:04;100488.63;;;4.44;100.00
24762;BME280;12865;51.934;10.330;2023-02-11T05:05:50;100483.63;;;4.38;100.00
24762;BME280;12865;51.934;10.330;2023-02-11T05:08:35;100484.47;;;4.39;100.00
24762;BME280;12865;51.934;10.330;2023-02-11T05:11:23;100474.03;;;4.35;100.00
24762;BME280;12865;51.934;10.330;2023-02-11T05:14:09;100473.91;;;4.39;100.00
24762;BME280;12865;51.934;10.330;2023-02-11T05:16:55;100477.47;;;4.38;100.00
24762;BME280;12865;51.934;10.330;2023-02-11T05:19:41;100475.75;;;4.37;100.00
24762;BME280;12865;51.934;10.330;2023-02-11T05:22:27;100471.06;;;4.43;100.00
24762;BME280;12865;51.934;10.330;2023-02-11T05:25:13;100462.50;;;4.38;100.00
24762;BME280;12865;51.934;10.330;2023-02-11T05:27:58;100466.78;;;4.41;100.00
24762;BME280;12865;51.934;10.330;2023-02-11T05:30:44;100463.47;;;4.35;100.00
24762;BME280;12865;51.934;10.330;2023-02-11T05:33:30;100467.78;;;4.38;100.00
24762;BME280;12865;51.934;10.330;2023-02-11T05:36:16;100466.84;;;4.39;100.00
24762;BME280;12865;51.934;10.330;2023-02-11T05:39:02;100458.53;;;4.48;100.00
24762;BME280;12865;51.934;10.330;2023-02-11T05:41:48;100466.69;;;4.42;100.00
24762;BME280;12865;51.934;10.330;2023-02-11T05:44:33;100462.28;;;4.43;100.00
24762;BME280;12865;51.934;10.330;2023-02-11T05:47:19;100472.78;;;4.44;100.00
24762;BME280;12865;51.934;10.330;2023-02-11T05:50:05;100467.38;;;4.47;100.00
24762;BME280;12865;51.934;10.330;2023-02-11T05:52:51;100468.28;;;4.46;100.00
24762;BME280;12865;51.934;10.330;2023-02-11T05:55:36;100474.28;;;4.50;100.00
24762;BME280;12865;51.934;10.330;2023-02-11T05:58:22;100479.56;;;4.50;100.00
24762;BME280;12865;51.934;10.330;2023-02-11T06:01:08;100470.13;;;4.44;100.00
24762;BME280;12865;51.934;10.330;2023-02-11T06:03:53;100464.22;;;4.58;100.00
24762;BME280;12865;51.934;10.330;2023-02-11T06:06:39;100454.16;;;4.47;100.00
24762;BME280;12865;51.934;10.330;2023-02-11T06:09:25;100439.09;;;4.49;100.00
24762;BME280;12865;51.934;10.330;2023-02-11T06:12:10;100448.78;;;4.49;100.00
24762;BME280;12865;51.934;10.330;2023-02-11T06:14:56;100460.31;;;4.48;100.00
24762;BME280;12865;51.934;10.330;2023-02-11T06:17:42;100446.16;;;4.49;100.00
24762;BME280;12865;51.934;10.330;2023-02-11T06:20:27;100449.66;;;4.49;100.00
24762;BME280;12865;51.934;10.330;2023-02-11T06:23:14;100462.00;;;4.49;100.00
24762;BME280;12865;51.934;10.330;2023-02-11T06:26:02;100459.28;;;4.50;100.00
24762;BME280;12865;51.934;10.330;2023-02-11T06:28:48;100463.63;;;4.51;100.00
24762;BME280;12865;51.934;10.330;2023-02-11T06:31:36;100469.78;;;4.52;100.00
24762;BME280;12865;51.934;10.330;2023-02-11T06:34:21;100474.06;;;4.54;100.00
24762;BME280;12865;51.934;10.330;2023-02-11T06:37:07;100455.88;;;4.48;100.00
24762;BME280;12865;51.934;10.330;2023-02-11T06:39:53;100462.19;;;4.63;100.00
24762;BME280;12865;51.934;10.330;2023-02-11T06:42:38;100458.88;;;4.59;100.00
24762;BME280;12865;51.934;10.330;2023-02-11T06:45:24;100458.06;;;4.57;100.00
24762;BME280;12865;51.934;10.330;2023-02-11T06:48:10;100459.09;;;4.55;100.00
24762;BME280;12865;51.934;10.330;2023-02-11T06:50:56;100465.88;;;4.60;100.00
24762;BME280;12865;51.934;10.330;2023-02-11T06:53:44;100481.34;;;4.49;100.00
24762;BME280;12865;51.934;10.330;2023-02-11T06:56:30;100495.50;;;4.48;100.00
24762;BME280;12865;51.934;10.330;2023-02-11T06:59:19;100488.41;;;4.49;100.00
24762;BME280;12865;51.934;10.330;2023-02-11T07:02:05;100487.13;;;4.57;100.00
24762;BME280;12865;51.934;10.330;2023-02-11T07:04:51;100484.63;;;4.54;100.00
24762;BME280;12865;51.934;10.330;2023-02-11T07:07:36;100470.69;;;4.51;100.00
24762;BME280;12865;51.934;10.330;2023-02-11T07:10:22;100470.84;;;4.66;100.00
24762;BME280;12865;51.934;10.330;2023-02-11T07:13:08;100476.72;;;4.54;100.00
24762;BME280;12865;51.934;10.330;2023-02-11T07:15:53;100476.63;;;4.56;100.00
24762;BME280;12865;51.934;10.330;2023-02-11T07:18:39;100479.00;;;4.62;100.00
24762;BME280;12865;51.934;10.330;2023-02-11T07:21:25;100487.91;;;4.59;100.00
24762;BME280;12865;51.934;10.330;2023-02-11T07:24:12;100482.50;;;4.62;100.00
24762;BME280;12865;51.934;10.330;2023-02-11T07:26:57;100476.19;;;4.65;100.00
24762;BME280;12865;51.934;10.330;2023-02-11T07:29:43;100481.44;;;4.66;100.00
24762;BME280;12865;51.934;10.330;2023-02-11T07:32:31;100471.34;;;4.74;100.00
24762;BME280;12865;51.934;10.330;2023-02-11T07:35:16;100474.94;;;4.73;100.00
24762;BME280;12865;51.934;10.330;2023-02-11T07:38:03;100476.28;;;4.82;100.00
24762;BME280;12865;51.934;10.330;2023-02-11T07:40:49;100468.41;;;4.81;100.00
24762;BME280;12865;51.934;10.330;2023-02-11T07:43:35;100474.34;;;4.86;100.00
24762;BME280;12865;51.934;10.330;2023-02-11T07:46:25;100479.19;;;4.95;100.00
24762;BME280;12865;51.934;10.330;2023-02-11T07:49:11;100482.47;;;5.00;100.00
24762;BME280;12865;51.934;10.330;2023-02-11T07:51:57;100481.59;;;4.99;100.00
24762;BME280;12865;51.934;10.330;2023-02-11T07:54:43;100490.56;;;4.97;100.00
24762;BME280;12865;51.934;10.330;2023-02-11T07:57:28;100489.16;;;5.07;100.00
24762;BME280;12865;51.934;10.330;2023-02-11T08:00:15;100485.09;;;5.00;100.00
24762;BME280;12865;51.934;10.330;2023-02-11T08:03:00;100467.09;;;5.08;100.00
24762;BME280;12865;51.934;10.330;2023-02-11T08:05:46;100487.63;;;5.03;100.00
24762;BME280;12865;51.934;10.330;2023-02-11T08:08:32;100477.03;;;5.03;100.00
24762;BME280;12865;51.934;10.330;2023-02-11T08:14:05;100479.09;;;5.15;100.00
24762;BME280;12865;51.934;10.330;2023-02-11T08:16:50;100473.50;;;5.21;100.00
24762;BME280;12865;51.934;10.330;2023-02-11T08:19:37;100477.38;;;5.14;100.00
24762;BME280;12865;51.934;10.330;2023-02-11T08:22:23;100491.44;;;5.14;100.00
24762;BME280;12865;51.934;10.330;2023-02-11T08:25:09;100488.72;;;5.16;100.00
24762;BME280;12865;51.934;10.330;2023-02-11T08:27:54;100505.84;;;5.26;100.00
24762;BME280;12865;51.934;10.330;2023-02-11T08:30:40;100491.31;;;5.35;100.00
24762;BME280;12865;51.934;10.330;2023-02-11T08:33:26;100484.25;;;5.35;100.00
24762;BME280;12865;51.934;10.330;2023-02-11T08:36:20;100485.81;;;5.39;100.00
24762;BME280;12865;51.934;10.330;2023-02-11T08:39:08;100481.28;;;5.41;100.00
24762;BME280;12865;51.934;10.330;2023-02-11T08:41:56;100483.94;;;5.41;100.00
24762;BME280;12865;51.934;10.330;2023-02-11T08:44:42;100506.81;;;5.42;100.00
24762;BME280;12865;51.934;10.330;2023-02-11T08:47:28;100521.50;;;5.48;100.00
24762;BME280;12865;51.934;10.330;2023-02-11T08:50:13;100526.81;;;5.48;100.00
24762;BME280;12865;51.934;10.330;2023-02-11T08:52:59;100532.88;;;5.50;100.00
24762;BME280;12865;51.934;10.330;2023-02-11T08:55:47;100525.97;;;5.65;100.00
24762;BME280;12865;51.934;10.330;2023-02-11T08:58:33;100533.44;;;5.57;100.00
24762;BME280;12865;51.934;10.330;2023-02-11T09:01:29;100523.94;;;5.70;100.00
24762;BME280;12865;51.934;10.330;2023-02-11T09:04:15;100527.13;;;5.76;100.00
24762;BME280;12865;51.934;10.330;2023-02-11T09:07:01;100538.59;;;5.77;100.00
24762;BME280;12865;51.934;10.330;2023-02-11T09:09:46;100539.97;;;5.84;100.00
24762;BME280;12865;51.934;10.330;2023-02-11T09:12:32;100552.66;;;5.77;100.00
24762;BME280;12865;51.934;10.330;2023-02-11T09:15:18;100558.97;;;5.75;100.00
24762;BME280;12865;51.934;10.330;2023-02-11T09:18:04;100554.00;;;5.86;100.00
24762;BME280;12865;51.934;10.330;2023-02-11T09:20:50;100547.06;;;5.83;100.00
24762;BME280;12865;51.934;10.330;2023-02-11T09:23:35;100540.06;;;5.82;100.00
24762;BME280;12865;51.934;10.330;2023-02-11T09:26:23;100539.97;;;5.84;100.00
24762;BME280;12865;51.934;10.330;2023-02-11T09:29:09;100546.72;;;5.91;100.00
24762;BME280;12865;51.934;10.330;2023-02-11T09:31:55;100557.91;;;5.79;100.00
24762;BME280;12865;51.934;10.330;2023-02-11T09:34:40;100561.81;;;5.89;100.00
24762;BME280;12865;51.934;10.330;2023-02-11T09:37:26;100574.91;;;5.92;100.00
24762;BME280;12865;51.934;10.330;2023-02-11T09:40:13;100568.69;;;5.93;100.00
24762;BME280;12865;51.934;10.330;2023-02-11T09:43:43;100589.13;;;5.89;100.00
24762;BME280;12865;51.934;10.330;2023-02-11T09:46:12;100569.38;;;5.97;100.00
24762;BME280;12865;51.934;10.330;2023-02-11T09:48:59;100569.53;;;5.94;100.00
24762;BME280;12865;51.934;10.330;2023-02-11T09:54:59;100561.97;;;6.03;100.00
24762;BME280;12865;51.934;10.330;2023-02-11T09:57:46;100552.41;;;6.01;100.00
24762;BME280;12865;51.934;10.330;2023-02-11T10:00:43;100560.09;;;6.05;100.00
24762;BME280;12865;51.934;10.330;2023-02-11T10:03:37;100569.53;;;6.11;100.00
24762;BME280;12865;51.934;10.330;2023-02-11T10:10:27;100588.69;;;6.16;100.00
24762;BME280;12865;51.934;10.330;2023-02-11T10:13:31;100593.44;;;6.26;100.00
24762;BME280;12865;51.934;10.330;2023-02-11T10:23:01;100599.03;;;6.20;100.00
24762;BME280;12865;51.934;10.330;2023-02-11T10:25:53;100597.72;;;6.29;100.00
24762;BME280;12865;51.934;10.330;2023-02-11T10:28:44;100593.44;;;6.26;100.00
24762;BME280;12865;51.934;10.330;2023-02-11T10:31:37;100592.34;;;6.30;100.00
24762;BME280;12865;51.934;10.330;2023-02-11T10:34:24;100599.88;;;6.38;100.00
24762;BME280;12865;51.934;10.330;2023-02-11T10:37:12;100599.06;;;6.38;100.00
24762;BME280;12865;51.934;10.330;2023-02-11T10:39:59;100606.34;;;6.32;100.00
24762;BME280;12865;51.934;10.330;2023-02-11T10:42:47;100606.28;;;6.34;100.00
24762;BME280;12865;51.934;10.330;2023-02-11T10:45:37;100605.41;;;6.34;100.00
24762;BME280;12865;51.934;10.330;2023-02-11T10:51:28;100606.03;;;6.39;100.00
24762;BME280;12865;51.934;10.330;2023-02-11T10:54:18;100606.34;;;6.32;100.00
24762;BME280;12865;51.934;10.330;2023-02-11T10:57:05;100597.34;;;6.37;100.00
24762;BME280;12865;51.934;10.330;2023-02-11T10:59:57;100591.09;;;6.38;100.00
24762;BME280;12865;51.934;10.330;2023-02-11T11:02:44;100599.19;;;6.35;100.00
24762;BME280;12865;51.934;10.330;2023-02-11T11:05:49;100612.28;;;6.38;100.00
24762;BME280;12865;51.934;10.330;2023-02-11T11:08:45;100607.13;;;6.35;100.00
24762;BME280;12865;51.934;10.330;2023-02-11T11:11:31;100611.19;;;6.42;100.00
24762;BME280;12865;51.934;10.330;2023-02-11T11:14:18;100615.84;;;6.54;100.00
24762;BME280;12865;51.934;10.330;2023-02-11T11:17:17;100604.72;;;6.47;100.00
24762;BME280;12865;51.934;10.330;2023-02-11T11:20:24;100605.03;;;6.41;100.00
24762;BME280;12865;51.934;10.330;2023-02-11T11:23:20;100604.44;;;6.52;100.00
24762;BME280;12865;51.934;10.330;2023-02-11T11:26:12;100597.16;;;6.57;100.00
24762;BME280;12865;51.934;10.330;2023-02-11T11:29:07;100604.31;;;6.55;100.00
24762;BME280;12865;51.934;10.330;2023-02-11T11:31:56;100609.94;;;6.49;100.00
24762;BME280;12865;51.934;10.330;2023-02-11T11:34:53;100601.97;;;6.49;100.00
24762;BME280;12865;51.934;10.330;2023-02-11T11:37:42;100608.50;;;6.59;100.00
24762;BME280;12865;51.934;10.330;2023-02-11T11:40:32;100608.81;;;6.53;100.00
24762;BME280;12865;51.934;10.330;2023-02-11T11:43:18;100596.06;;;6.77;100.00
24762;BME280;12865;51.934;10.330;2023-02-11T11:46:05;100601.72;;;6.70;100.00
24762;BME280;12865;51.934;10.330;2023-02-11T11:48:57;100609.34;;;6.59;100.00
24762;BME280;12865;51.934;10.330;2023-02-11T11:52:01;100608.28;;;6.63;100.00
24762;BME280;12865;51.934;10.330;2023-02-11T11:54:58;100606.75;;;6.75;100.00
24762;BME280;12865;51.934;10.330;2023-02-11T11:57:48;100610.97;;;6.79;100.00
24762;BME280;12865;51.934;10.330;2023-02-11T12:22:43;100605.09;;;6.90;100.00
24762;BME280;12865;51.934;10.330;2023-02-11T12:25:44;100607.31;;;6.97;100.00
24762;BME280;12865;51.934;10.330;2023-02-11T12:40:42;100615.94;;;7.01;100.00
24762;BME280;12865;51.934;10.330;2023-02-11T12:43:35;100616.81;;;7.01;100.00
24762;BME280;12865;51.934;10.330;2023-02-11T12:49:44;100617.09;;;7.13;100.00
24762;BME280;12865;51.934;10.330;2023-02-11T12:55:43;100618.00;;;6.96;100.00
24762;BME280;12865;51.934;10.330;2023-02-11T12:58:32;100610.84;;;6.98;100.00
24762;BME280;12865;51.934;10.330;2023-02-11T13:01:25;100619.88;;;6.94;100.00
24762;BME280;12865;51.934;10.330;2023-02-11T13:04:29;100626.56;;;7.01;100.00
24762;BME280;12865;51.934;10.330;2023-02-11T13:07:28;100624.94;;;6.98;100.00
24762;BME280;12865;51.934;10.330;2023-02-11T13:10:36;100613.63;;;6.95;100.00
24762;BME280;12865;51.934;10.330;2023-02-11T13:13:27;100618.25;;;6.91;100.00
24762;BME280;12865;51.934;10.330;2023-02-11T13:16:26;100610.91;;;6.96;100.00
24762;BME280;12865;51.934;10.330;2023-02-11T13:22:43;100620.75;;;7.10;100.00
24762;BME280;12865;51.934;10.330;2023-02-11T13:25:45;100614.78;;;7.06;100.00
24762;BME280;12865;51.934;10.330;2023-02-11T13:28:39;100616.41;;;7.09;100.00
24762;BME280;12865;51.934;10.330;2023-02-11T13:31:27;100620.63;;;7.13;100.00
24762;BME280;12865;51.934;10.330;2023-02-11T13:34:53;100626.59;;;7.17;100.00
24762;BME280;12865;51.934;10.330;2023-02-11T13:37:46;100632.41;;;7.07;100.00
24762;BME280;12865;51.934;10.330;2023-02-11T13:40:34;100631.38;;;7.10;100.00
24762;BME280;12865;51.934;10.330;2023-02-11T13:43:23;100635.91;;;7.08;100.00
24762;BME280;12865;51.934;10.330;2023-02-11T13:46:11;100646.44;;;7.09;100.00
24762;BME280;12865;51.934;10.330;2023-02-11T13:48:57;100632.41;;;7.07;100.00
24762;BME280;12865;51.934;10.330;2023-02-11T13:51:44;100643.97;;;7.06;100.00
24762;BME280;12865;51.934;10.330;2023-02-11T13:54:35;100634.63;;;7.15;100.00
24762;BME280;12865;51.934;10.330;2023-02-11T13:57:26;100639.25;;;7.12;100.00
24762;BME280;12865;51.934;10.330;2023-02-11T14:03:37;100640.78;;;7.16;100.00
24762;BME280;12865;51.934;10.330;2023-02-11T14:07:24;100637.38;;;7.14;100.00
24762;BME280;12865;51.934;10.330;2023-02-11T14:13:30;100646.28;;;7.13;100.00
24762;BME280;12865;51.934;10.330;2023-02-11T14:16:19;100643.78;;;7.09;100.00
24762;BME280;12865;51.934;10.330;2023-02-11T14:19:07;100644.28;;;7.16;100.00
24762;BME280;12865;51.934;10.330;2023-02-11T14:22:01;100640.13;;;7.12;100.00
24762;BME280;12865;51.934;10.330;2023-02-11T14:24:51;100650.53;;;7.15;100.00
24762;BME280;12865;51.934;10.330;2023-02-11T14:28:20;100645.88;;;7.20;100.00
24762;BME280;12865;51.934;10.330;2023-02-11T14:31:11;100653.81;;;7.20;100.00
24762;BME280;12865;51.934;10.330;2023-02-11T14:37:24;100662.28;;;7.27;100.00
24762;BME280;12865;51.934;10.330;2023-02-11T14:43:13;100667.16;;;7.19;100.00
24762;BME280;12865;51.934;10.330;2023-02-11T14:46:01;100673.06;;;7.24;100.00
24762;BME280;12865;51.934;10.330;2023-02-11T14:48:50;100671.69;;;7.17;100.00
24762;BME280;12865;51.934;10.330;2023-02-11T14:51:38;100673.84;;;7.26;100.00
24762;BME280;12865;51.934;10.330;2023-02-11T14:57:07;100673.31;;;7.19;100.00
24762;BME280;12865;51.934;10.330;2023-02-11T15:00:02;100671.34;;;7.23;100.00
24762;BME280;12865;51.934;10.330;2023-02-11T15:02:48;100667.16;;;7.19;100.00
24762;BME280;12865;51.934;10.330;2023-02-11T15:05:33;100669.66;;;7.22;100.00
24762;BME280;12865;51.934;10.330;2023-02-11T15:08:19;100673.13;;;7.22;100.00
24762;BME280;12865;51.934;10.330;2023-02-11T15:11:09;100657.94;;;7.26;100.00
24762;BME280;12865;51.934;10.330;2023-02-11T15:13:57;100675.72;;;7.24;100.00
24762;BME280;12865;51.934;10.330;2023-02-11T15:16:45;100670.25;;;7.27;100.00
24762;BME280;12865;51.934;10.330;2023-02-11T15:19:35;100684.59;;;7.23;100.00
24762;BME280;12865;51.934;10.330;2023-02-11T15:22:28;100681.19;;;7.21;100.00
24762;BME280;12865;51.934;10.330;2023-02-11T15:25:17;100687.88;;;7.28;100.00
24762;BME280;12865;51.934;10.330;2023-02-11T15:28:14;100683.00;;;7.36;100.00
24762;BME280;12865;51.934;10.330;2023-02-11T15:31:14;100695.84;;;7.28;100.00
24762;BME280;12865;51.934;10.330;2023-02-11T15:34:06;100695.00;;;7.27;100.00
24762;BME280;12865;51.934;10.330;2023-02-11T15:36:52;100695.94;;;7.26;100.00
24762;BME280;12865;51.934;10.330;2023-02-11T15:39:39;100682.41;;;7.31;100.00
24762;BME280;12865;51.934;10.330;2023-02-11T15:42:29;100678.13;;;7.28;100.00
24762;BME280;12865;51.934;10.330;2023-02-11T15:48:37;100694.47;;;7.21;100.00
24762;BME280;12865;51.934;10.330;2023-02-11T15:51:31;100701.03;;;7.29;100.00
24762;BME280;12865;51.934;10.330;2023-02-11T15:54:21;100692.41;;;7.26;100.00
24762;BME280;12865;51.934;10.330;2023-02-11T15:57:09;100695.22;;;7.23;100.00
24762;BME280;12865;51.934;10.330;2023-02-11T15:59:55;100699.59;;;7.24;100.00
24762;BME280;12865;51.934;10.330;2023-02-11T16:02:44;100706.53;;;7.26;100.00
24762;BME280;12865;51.934;10.330;2023-02-11T16:05:35;100706.69;;;7.23;100.00
24762;BME280;12865;51.934;10.330;2023-02-11T16:08:26;100712.19;;;7.36;100.00
24762;BME280;12865;51.934;10.330;2023-02-11T16:11:36;100705.94;;;7.37;100.00
24762;BME280;12865;51.934;10.330;2023-02-11T16:14:38;100703.47;;;7.34;100.00
24762;BME280;12865;51.934;10.330;2023-02-11T16:17:26;100706.88;;;7.36;100.00
24762;BME280;12865;51.934;10.330;2023-02-11T16:20:17;100707.22;;;7.30;100.00
24762;BME280;12865;51.934;10.330;2023-02-11T16:23:05;100714.41;;;7.28;100.00
24762;BME280;12865;51.934;10.330;2023-02-11T16:26:00;100715.69;;;7.36;100.00